Time;durP1;ratioP1;P1;durP2;ratioP2;P2;SDS_P1;SDS_P2;PMS_P1;PMS_P2;Temp;Humidity;BMP_temperature;BMP_pressure;BME280_temperature;BME280_humidity;BME280_pressure;Samples;Min_cycle;Max_cycle;Signal;HPM_P1;HPM_P2
2022/09/29 00:00:36;;;;;;;;;;;;;;;9.25;68.23;97337.47;4899386;29;19986;-66
2022/09/29 00:03:03;;;;;;;;;;;;;;;9.23;67.97;97347.44;4914844;29;19923;-66
2022/09/29 00:05:30;;;;;;;;;;;;;;;9.20;68.08;97351.31;4919617;29;20360;-66
2022/09/29 00:07:57;;;;;;;;;;;;;;;9.15;68.29;97351.97;4919618;29;20299;-66
2022/09/29 00:10:23;;;;;;;;;;;;;;;9.11;68.65;97342.88;4920285;29;19923;-65
2022/09/29 00:12:50;;;;;;;;;;;;;;;9.08;68.13;97348.59;4920712;29;19930;-66
2022/09/29 00:15:16;;;;;;;;;;;;;;;9.07;68.62;97359.34;4904133;29;19962;-67
2022/09/29 00:17:43;;;;;;;;;;;;;;;9.05;68.42;97351.66;4918752;29;19923;-67
2022/09/29 00:20:30;;;;;;;;;;;;;;;9.03;68.42;97351.06;4919173;29;19923;-67
2022/09/29 00:22:56;;;;;;;;;;;;;;;8.99;68.49;97347.25;4918702;29;20340;-66
2022/09/29 00:25:23;;;;;;;;;;;;;;;8.98;68.56;97350.09;4919792;29;19923;-66
2022/09/29 00:27:49;;;;;;;;;;;;;;;8.95;68.80;97342.66;4919255;29;19926;-67
2022/09/29 00:30:16;;;;;;;;;;;;;;;8.90;68.56;97344.09;4918566;29;19930;-66
2022/09/29 00:32:42;;;;;;;;;;;;;;;8.90;68.68;97343.31;4919666;29;19923;-66
2022/09/29 00:35:09;;;;;;;;;;;;;;;8.86;68.84;97345.56;4902869;29;19923;-66
2022/09/29 00:37:36;;;;;;;;;;;;;;;8.84;69.03;97344.97;4902153;29;19922;-66
2022/09/29 00:40:03;;;;;;;;;;;;;;;8.82;68.65;97343.59;4918471;29;19933;-67
2022/09/29 00:42:30;;;;;;;;;;;;;;;8.78;68.62;97343.19;4919590;29;19922;-66
2022/09/29 00:45:05;;;;;;;;;;;;;;;8.74;68.53;97339.38;4919479;29;19923;-66
2022/09/29 00:47:34;;;;;;;;;;;;;;;8.64;68.59;97339.84;4918934;29;19923;-66
2022/09/29 00:50:11;;;;;;;;;;;;;;;8.53;68.46;97345.00;4902282;29;19927;-66
2022/09/29 00:52:43;;;;;;;;;;;;;;;8.44;69.09;97345.28;4919394;29;19986;-66
2022/09/29 00:55:14;;;;;;;;;;;;;;;8.39;69.11;97354.84;4902920;29;19922;-66
2022/09/29 00:57:43;;;;;;;;;;;;;;;8.34;69.28;97344.94;4918791;29;20390;-66
2022/09/29 01:00:12;;;;;;;;;;;;;;;8.27;69.09;97340.72;4902486;29;19945;-65
2022/09/29 01:02:48;;;;;;;;;;;;;;;8.22;69.27;97340.56;4917801;29;19958;-66
2022/09/29 01:05:18;;;;;;;;;;;;;;;8.16;69.37;97350.09;4918225;29;19923;-66
2022/09/29 01:07:45;;;;;;;;;;;;;;;8.08;69.39;97347.72;4918705;29;19923;-66
2022/09/29 01:10:15;;;;;;;;;;;;;;;7.98;69.23;97339.50;4919178;29;19946;-64
2022/09/29 01:12:44;;;;;;;;;;;;;;;7.87;69.37;97349.66;4902108;29;19927;-64
2022/09/29 01:15:11;;;;;;;;;;;;;;;7.79;69.56;97344.66;4918769;29;19930;-67
2022/09/29 01:17:38;;;;;;;;;;;;;;;7.73;69.77;97334.97;4901312;29;19947;-66
2022/09/29 01:20:12;;;;;;;;;;;;;;;7.72;70.43;97343.91;4902108;29;20307;-66
2022/09/29 01:22:44;;;;;;;;;;;;;;;7.69;70.11;97347.75;4918713;29;19946;-66
2022/09/29 01:25:39;;;;;;;;;;;;;;;7.65;70.12;97340.47;4919048;29;19927;-65
2022/09/29 01:28:30;;;;;;;;;;;;;;;7.59;70.05;97344.75;4918143;29;19927;-66
2022/09/29 01:31:17;;;;;;;;;;;;;;;7.52;70.36;97346.59;4901642;29;19923;-66
2022/09/29 01:34:06;;;;;;;;;;;;;;;7.45;70.15;97344.00;4901521;29;19923;-66
2022/09/29 01:36:54;;;;;;;;;;;;;;;7.38;70.55;97342.41;4918143;29;19949;-66
2022/09/29 01:39:27;;;;;;;;;;;;;;;7.30;70.54;97353.16;4917433;29;19929;-65
2022/09/29 01:41:57;;;;;;;;;;;;;;;7.25;70.90;97348.50;4918674;29;19970;-66
2022/09/29 01:44:29;;;;;;;;;;;;;;;7.23;70.78;97350.56;4917130;29;20414;-66
2022/09/29 01:46:58;;;;;;;;;;;;;;;7.17;70.96;97348.72;4916930;29;19930;-66
2022/09/29 01:49:28;;;;;;;;;;;;;;;7.15;71.37;97340.25;4918220;29;19950;-66
2022/09/29 01:51:58;;;;;;;;;;;;;;;7.10;71.26;97346.13;4918206;29;19923;-66
2022/09/29 01:54:32;;;;;;;;;;;;;;;7.08;71.35;97350.78;4918639;29;19934;-66
2022/09/29 01:57:02;;;;;;;;;;;;;;;7.08;71.53;97349.97;4916581;29;20410;-66
2022/09/29 01:59:34;;;;;;;;;;;;;;;7.10;71.86;97351.41;4918193;29;19923;-66
2022/09/29 02:02:06;;;;;;;;;;;;;;;7.13;71.92;97355.41;4918132;29;19969;-66
2022/09/29 02:04:40;;;;;;;;;;;;;;;7.12;71.66;97357.25;4918136;29;19982;-66
2022/09/29 02:07:15;;;;;;;;;;;;;;;7.12;71.61;97351.97;4916297;29;19923;-65
2022/09/29 02:09:45;;;;;;;;;;;;;;;7.10;71.43;97353.19;4901228;29;19934;-66
2022/09/29 02:12:13;;;;;;;;;;;;;;;7.10;71.45;97355.81;4916680;29;19990;-66
2022/09/29 02:14:43;;;;;;;;;;;;;;;7.11;71.83;97357.47;4916712;29;19930;-66
2022/09/29 02:17:12;;;;;;;;;;;;;;;7.09;71.64;97348.97;4917595;29;20001;-66
2022/09/29 02:19:42;;;;;;;;;;;;;;;7.09;71.44;97351.59;4916608;29;19930;-66
2022/09/29 02:22:08;;;;;;;;;;;;;;;7.06;71.41;97352.81;4917792;29;19923;-66
2022/09/29 02:24:35;;;;;;;;;;;;;;;6.99;71.34;97348.59;4900898;29;19923;-66
2022/09/29 02:27:02;;;;;;;;;;;;;;;6.93;71.38;97345.75;4899532;29;19975;-66
2022/09/29 02:29:28;;;;;;;;;;;;;;;6.87;71.42;97343.94;4900878;29;19970;-66
2022/09/29 02:31:58;;;;;;;;;;;;;;;6.84;71.35;97346.16;4900588;29;19923;-66
2022/09/29 02:34:24;;;;;;;;;;;;;;;6.84;71.90;97359.31;4900469;29;19923;-66
2022/09/29 02:36:54;;;;;;;;;;;;;;;6.84;71.85;97351.44;4917158;29;20375;-66
2022/09/29 02:39:23;;;;;;;;;;;;;;;6.84;72.00;97349.59;4917477;29;19931;-66
2022/09/29 02:41:50;;;;;;;;;;;;;;;6.86;72.09;97352.03;4900385;29;19923;-66
2022/09/29 02:44:35;;;;;;;;;;;;;;;6.87;72.03;97353.66;4900774;29;19946;-66
2022/09/29 02:47:04;;;;;;;;;;;;;;;6.88;72.13;97342.13;4915831;29;19935;-66
2022/09/29 02:49:43;;;;;;;;;;;;;;;6.90;72.23;97351.44;4916185;29;19923;-66
2022/09/29 02:52:18;;;;;;;;;;;;;;;6.94;72.12;97346.56;4900226;29;19979;-66
2022/09/29 02:54:48;;;;;;;;;;;;;;;6.96;71.95;97347.16;4900293;29;19945;-66
2022/09/29 02:57:33;;;;;;;;;;;;;;;6.98;72.11;97350.41;4915391;29;20456;-66
2022/09/29 03:00:08;;;;;;;;;;;;;;;7.01;72.11;97344.72;4915971;29;19923;-66
2022/09/29 03:02:36;;;;;;;;;;;;;;;7.05;72.44;97353.00;4916798;29;19923;-66
2022/09/29 03:05:07;;;;;;;;;;;;;;;7.11;72.30;97354.81;4917013;29;19923;-66
2022/09/29 03:07:35;;;;;;;;;;;;;;;7.15;72.27;97338.44;4899800;29;20364;-66
2022/09/29 03:10:01;;;;;;;;;;;;;;;7.18;72.10;97343.28;4900199;29;19929;-66
2022/09/29 03:12:27;;;;;;;;;;;;;;;7.22;72.05;97348.91;4916921;29;19923;-66
2022/09/29 03:14:54;;;;;;;;;;;;;;;7.25;71.84;97348.50;4916906;29;19970;-66
2022/09/29 03:17:20;;;;;;;;;;;;;;;7.29;71.89;97344.47;4916192;29;19934;-66
2022/09/29 03:19:47;;;;;;;;;;;;;;;7.26;71.41;97347.50;4915722;29;20014;-66
2022/09/29 03:22:13;;;;;;;;;;;;;;;7.22;71.56;97348.91;4899855;29;19927;-66
2022/09/29 03:24:40;;;;;;;;;;;;;;;7.18;71.71;97356.44;4899841;29;19930;-66
2022/09/29 03:27:08;;;;;;;;;;;;;;;7.17;71.81;97354.78;4899208;29;19923;-66
2022/09/29 03:29:35;;;;;;;;;;;;;;;7.18;71.49;97364.31;4916586;29;19923;-66
2022/09/29 03:32:02;;;;;;;;;;;;;;;7.20;71.97;97364.09;4915178;29;19927;-66
2022/09/29 03:34:32;;;;;;;;;;;;;;;7.18;71.82;97356.44;4899589;29;19923;-66
2022/09/29 03:36:59;;;;;;;;;;;;;;;7.19;71.90;97359.88;4899243;29;19923;-66
2022/09/29 03:39:25;;;;;;;;;;;;;;;7.16;71.45;97353.19;4899353;29;19923;-66
2022/09/29 03:41:52;;;;;;;;;;;;;;;7.11;71.66;97345.13;4915445;29;19923;-66
2022/09/29 03:44:18;;;;;;;;;;;;;;;7.05;71.60;97343.31;4899520;29;19923;-66
2022/09/29 03:46:46;;;;;;;;;;;;;;;6.99;71.52;97340.72;4898934;29;19994;-66
2022/09/29 03:49:14;;;;;;;;;;;;;;;6.95;71.95;97343.72;4916393;29;19933;-66
2022/09/29 03:51:41;;;;;;;;;;;;;;;6.94;71.83;97343.94;4916335;29;19923;-66
2022/09/29 03:54:08;;;;;;;;;;;;;;;6.95;71.99;97351.63;4916424;29;20331;-66
2022/09/29 03:56:35;;;;;;;;;;;;;;;6.98;71.93;97349.56;4914520;29;19922;-65
2022/09/29 03:59:04;;;;;;;;;;;;;;;7.00;72.00;97355.44;4915198;29;20284;-66
2022/09/29 04:01:30;;;;;;;;;;;;;;;7.02;71.80;97351.63;5356661;23;19934;-66
2022/09/29 04:03:57;;;;;;;;;;;;;;;7.05;71.98;97360.88;4934130;29;19923;-67
2022/09/29 04:06:23;;;;;;;;;;;;;;;7.08;71.90;97363.91;4934674;29;19923;-66
2022/09/29 04:08:50;;;;;;;;;;;;;;;7.09;71.63;97365.53;4935221;29;19973;-66
2022/09/29 04:11:16;;;;;;;;;;;;;;;7.11;71.91;97368.78;4933830;29;19989;-66
2022/09/29 04:13:43;;;;;;;;;;;;;;;7.13;71.98;97371.19;4935120;29;19923;-66
2022/09/29 04:16:09;;;;;;;;;;;;;;;7.14;71.74;97376.25;4918185;29;19929;-66
2022/09/29 04:18:36;;;;;;;;;;;;;;;7.16;71.73;97376.03;4934133;29;19930;-66
2022/09/29 04:21:06;;;;;;;;;;;;;;;7.16;71.80;97373.41;4934166;29;19923;-65
2022/09/29 04:23:33;;;;;;;;;;;;;;;7.19;71.51;97375.63;4934995;29;19923;-65
2022/09/29 04:26:02;;;;;;;;;;;;;;;7.16;71.25;97370.78;4935639;29;19946;-66
2022/09/29 04:28:33;;;;;;;;;;;;;;;7.14;71.10;97370.16;4933395;29;19931;-66
2022/09/29 04:31:00;;;;;;;;;;;;;;;7.10;71.18;97377.69;4934118;29;20371;-65
2022/09/29 04:33:28;;;;;;;;;;;;;;;7.11;71.51;97383.75;4933881;29;19970;-65
2022/09/29 04:35:55;;;;;;;;;;;;;;;7.10;71.16;97384.72;4933959;29;19930;-66
2022/09/29 04:38:22;;;;;;;;;;;;;;;7.04;71.08;97382.94;4933448;29;20017;-66
2022/09/29 04:40:48;;;;;;;;;;;;;;;6.95;70.95;97380.50;4935090;29;19922;-66
2022/09/29 04:43:15;;;;;;;;;;;;;;;6.89;71.50;97376.06;4917924;29;20400;-65
2022/09/29 04:45:41;;;;;;;;;;;;;;;6.85;71.58;97374.84;4934346;29;19922;-65
2022/09/29 04:48:08;;;;;;;;;;;;;;;6.84;71.78;97382.94;4934578;29;20382;-65
2022/09/29 04:50:35;;;;;;;;;;;;;;;6.87;72.24;97385.19;4935668;29;20367;-65
2022/09/29 04:53:01;;;;;;;;;;;;;;;6.94;72.47;97378.09;4938390;29;19934;-66
2022/09/29 04:55:27;;;;;;;;;;;;;;;6.99;72.35;97378.28;4938660;29;19922;-66
2022/09/29 04:57:54;;;;;;;;;;;;;;;7.04;72.12;97378.47;4938006;29;19923;-65
2022/09/29 05:00:21;;;;;;;;;;;;;;;7.05;71.98;97372.19;4938448;29;19982;-65
2022/09/29 05:02:47;;;;;;;;;;;;;;;7.05;71.74;97374.03;4936990;29;19929;-66
2022/09/29 05:05:15;;;;;;;;;;;;;;;7.04;71.87;97375.03;4938481;29;19927;-66
2022/09/29 05:07:43;;;;;;;;;;;;;;;7.03;71.71;97379.50;4936734;29;19951;-65
2022/09/29 05:10:09;;;;;;;;;;;;;;;7.02;71.99;97387.56;4937150;29;19923;-65
2022/09/29 05:12:36;;;;;;;;;;;;;;;7.01;72.26;97376.25;4938137;29;19929;-65
2022/09/29 05:15:03;;;;;;;;;;;;;;;7.03;72.27;97381.31;4936985;29;19923;-65
2022/09/29 05:17:30;;;;;;;;;;;;;;;7.07;72.30;97382.53;4936444;29;19923;-65
2022/09/29 05:19:56;;;;;;;;;;;;;;;7.11;72.28;97384.53;4938064;29;20438;-65
2022/09/29 05:22:24;;;;;;;;;;;;;;;7.16;72.45;97389.19;4938166;29;19930;-65
2022/09/29 05:24:51;;;;;;;;;;;;;;;7.21;72.38;97399.88;4937917;29;19958;-65
2022/09/29 05:27:18;;;;;;;;;;;;;;;7.26;72.37;97402.69;4936254;29;20326;-65
2022/09/29 05:29:44;;;;;;;;;;;;;;;7.31;72.55;97405.53;4936597;29;19926;-64
2022/09/29 05:32:11;;;;;;;;;;;;;;;7.37;72.11;97404.69;4936761;29;20427;-64
2022/09/29 05:34:37;;;;;;;;;;;;;;;7.41;71.43;97408.53;4936738;29;20375;-64
2022/09/29 05:37:04;;;;;;;;;;;;;;;7.41;71.29;97402.47;4936058;29;19923;-64
2022/09/29 05:39:33;;;;;;;;;;;;;;;7.38;71.28;97403.66;4936805;29;19922;-64
2022/09/29 05:42:01;;;;;;;;;;;;;;;7.41;71.74;97411.16;4937542;29;19923;-64
2022/09/29 05:44:28;;;;;;;;;;;;;;;7.45;71.53;97406.28;4937467;29;20409;-65
2022/09/29 05:46:54;;;;;;;;;;;;;;;7.48;71.39;97405.09;4935617;29;19923;-64
2022/09/29 05:49:22;;;;;;;;;;;;;;;7.49;71.13;97404.06;4936021;29;19927;-65
2022/09/29 05:51:48;;;;;;;;;;;;;;;7.51;71.08;97402.03;4937284;29;19929;-65
2022/09/29 05:54:15;;;;;;;;;;;;;;;7.55;71.13;97405.84;4936384;29;19923;-65
2022/09/29 05:56:41;;;;;;;;;;;;;;;7.59;71.13;97405.25;4936797;29;20386;-65
2022/09/29 05:59:10;;;;;;;;;;;;;;;7.63;70.72;97403.81;4936012;29;20027;-65
2022/09/29 06:01:37;;;;;;;;;;;;;;;7.63;70.67;97406.44;4934917;29;20375;-64
2022/09/29 06:04:04;;;;;;;;;;;;;;;7.62;70.43;97406.66;4937187;29;19978;-64
2022/09/29 06:06:30;;;;;;;;;;;;;;;7.62;70.45;97404.81;4935416;29;19922;-65
2022/09/29 06:08:58;;;;;;;;;;;;;;;7.65;70.86;97404.41;4935969;29;19922;-65
2022/09/29 06:11:26;;;;;;;;;;;;;;;7.71;70.76;97410.66;4936034;29;20379;-64
2022/09/29 06:13:53;;;;;;;;;;;;;;;7.73;70.74;97416.53;4935849;29;20401;-65
2022/09/29 06:16:21;;;;;;;;;;;;;;;7.75;70.38;97411.84;4936409;29;19970;-65
2022/09/29 06:18:48;;;;;;;;;;;;;;;7.79;70.46;97414.88;4936885;29;19923;-65
2022/09/29 06:21:16;;;;;;;;;;;;;;;7.82;70.58;97417.91;4935531;29;19927;-65
2022/09/29 06:23:42;;;;;;;;;;;;;;;7.89;70.53;97413.44;4936883;29;19927;-65
2022/09/29 06:26:10;;;;;;;;;;;;;;;7.95;70.41;97417.84;4936506;29;19922;-65
2022/09/29 06:28:37;;;;;;;;;;;;;;;7.99;70.14;97420.06;4935629;29;20374;-65
2022/09/29 06:31:04;;;;;;;;;;;;;;;7.96;70.10;97408.16;4936774;29;19923;-65
2022/09/29 06:33:32;;;;;;;;;;;;;;;7.98;69.86;97415.81;4936535;29;20389;-65
2022/09/29 06:38:46;;;;;;;;;;;;;;;8.00;69.72;97413.78;4936647;29;19970;-66
2022/09/29 06:41:12;;;;;;;;;;;;;;;7.99;70.10;97405.06;4935196;29;19922;-66
2022/09/29 06:43:39;;;;;;;;;;;;;;;8.06;70.24;97418.22;4935156;29;20375;-66
2022/09/29 06:46:05;;;;;;;;;;;;;;;8.14;70.11;97420.59;4935168;29;19982;-65
2022/09/29 06:48:32;;;;;;;;;;;;;;;8.22;70.23;97419.56;4935209;29;20415;-66
2022/09/29 06:50:59;;;;;;;;;;;;;;;8.28;69.55;97413.41;4935016;29;19929;-65
2022/09/29 06:53:35;;;;;;;;;;;;;;;8.29;69.53;97423.75;4935124;29;19923;-65
2022/09/29 06:56:04;;;;;;;;;;;;;;;8.27;69.42;97419.72;4919544;29;19929;-65
2022/09/29 06:58:31;;;;;;;;;;;;;;;8.26;69.76;97428.63;4934606;29;19922;-65
2022/09/29 07:01:01;;;;;;;;;;;;;;;8.24;69.33;97434.09;4934834;29;19923;-65
2022/09/29 07:03:28;;;;;;;;;;;;;;;8.23;69.54;97432.50;4934711;29;19923;-66
2022/09/29 07:05:55;;;;;;;;;;;;;;;8.24;69.48;97431.47;4935997;29;19930;-65
2022/09/29 07:08:41;;;;;;;;;;;;;;;8.28;69.51;97434.50;4935031;29;19934;-66
2022/09/29 07:11:09;;;;;;;;;;;;;;;8.35;69.54;97441.34;4935933;29;19986;-65
2022/09/29 07:13:35;;;;;;;;;;;;;;;8.48;69.92;97439.66;4935893;29;19922;-65
2022/09/29 07:16:09;;;;;;;;;;;;;;;8.61;69.81;97439.56;4934802;29;19927;-65
2022/09/29 07:18:37;;;;;;;;;;;;;;;8.75;69.34;97441.13;4936083;29;19923;-65
2022/09/29 07:21:04;;;;;;;;;;;;;;;8.91;69.35;97439.78;4934994;29;20421;-65
2022/09/29 07:23:31;;;;;;;;;;;;;;;9.06;69.54;97439.44;4935202;29;20332;-65
2022/09/29 07:25:58;;;;;;;;;;;;;;;9.21;68.94;97436.47;4934655;29;19929;-65
2022/09/29 07:28:25;;;;;;;;;;;;;;;9.36;68.90;97440.41;4934423;29;19946;-65
2022/09/29 07:30:58;;;;;;;;;;;;;;;9.49;68.91;97436.00;4934586;29;20383;-65
2022/09/29 07:33:38;;;;;;;;;;;;;;;9.59;68.58;97434.50;4934534;29;20306;-65
2022/09/29 07:36:05;;;;;;;;;;;;;;;9.71;68.67;97433.75;4934475;29;20429;-66
2022/09/29 07:38:32;;;;;;;;;;;;;;;9.80;68.44;97435.06;4934182;29;19923;-65
2022/09/29 07:41:02;;;;;;;;;;;;;;;9.89;67.75;97431.09;4934392;29;19923;-65
2022/09/29 07:43:29;;;;;;;;;;;;;;;9.97;67.47;97430.00;4934337;29;19923;-65
2022/09/29 07:45:56;;;;;;;;;;;;;;;10.03;66.95;97431.75;4934343;29;19923;-65
2022/09/29 07:48:22;;;;;;;;;;;;;;;10.08;67.31;97431.88;4934980;29;19923;-66
2022/09/29 07:51:02;;;;;;;;;;;;;;;10.18;67.29;97442.72;4934434;29;20505;-65
2022/09/29 07:53:28;;;;;;;;;;;;;;;10.30;67.25;97446.25;4934408;29;20401;-65
2022/09/29 07:55:55;;;;;;;;;;;;;;;10.33;66.39;97443.16;4934411;29;19926;-65
2022/09/29 07:58:21;;;;;;;;;;;;;;;10.34;66.27;97444.78;4935446;29;19994;-65
2022/09/29 08:00:54;;;;;;;;;;;;;;;10.33;66.29;97445.00;4937803;29;19922;-65
2022/09/29 08:03:21;;;;;;;;;;;;;;;10.40;66.77;97441.22;4935713;29;19923;-65
2022/09/29 08:05:48;;;;;;;;;;;;;;;10.49;66.37;97446.19;4937364;29;20385;-65
2022/09/29 08:08:14;;;;;;;;;;;;;;;10.54;66.57;97452.44;4938945;29;19922;-65
2022/09/29 08:10:40;;;;;;;;;;;;;;;10.60;66.52;97456.78;4936471;29;19923;-65
2022/09/29 08:13:18;;;;;;;;;;;;;;;10.67;66.32;97454.06;4935904;29;19954;-65
2022/09/29 08:15:44;;;;;;;;;;;;;;;10.73;66.02;97455.78;4935362;29;19931;-65
2022/09/29 08:18:11;;;;;;;;;;;;;;;10.79;66.06;97459.38;4933496;29;19930;-65
2022/09/29 08:20:37;;;;;;;;;;;;;;;10.82;66.03;97472.16;4933967;29;20458;-65
2022/09/29 08:23:05;;;;;;;;;;;;;;;10.86;65.69;97465.41;4935246;29;19926;-65
2022/09/29 08:25:34;;;;;;;;;;;;;;;10.93;65.25;97474.00;4937039;29;20021;-65
2022/09/29 08:28:01;;;;;;;;;;;;;;;11.03;65.62;97481.41;4938412;29;19930;-65
2022/09/29 08:30:27;;;;;;;;;;;;;;;11.14;65.78;97478.78;4939156;29;19977;-65
2022/09/29 08:32:54;;;;;;;;;;;;;;;11.27;65.87;97479.59;4938068;29;19926;-65
2022/09/29 08:35:20;;;;;;;;;;;;;;;11.40;65.28;97489.94;4938776;29;19930;-65
2022/09/29 08:37:47;;;;;;;;;;;;;;;11.50;65.06;97487.50;4937047;29;19922;-65
2022/09/29 08:40:14;;;;;;;;;;;;;;;11.60;65.06;97485.13;4938953;29;20030;-65
2022/09/29 08:42:59;;;;;;;;;;;;;;;11.71;64.88;97482.66;4937904;29;19923;-65
2022/09/29 08:45:41;;;;;;;;;;;;;;;11.97;64.56;97479.56;4938204;29;19923;-65
2022/09/29 08:48:25;;;;;;;;;;;;;;;12.26;64.51;97482.25;4943222;29;19930;-65
2022/09/29 08:50:57;;;;;;;;;;;;;;;12.51;64.09;97481.94;4946645;29;20514;-66
2022/09/29 08:53:24;;;;;;;;;;;;;;;12.77;63.73;97483.19;4946086;29;19930;-65
2022/09/29 08:55:56;;;;;;;;;;;;;;;12.92;63.30;97480.81;4944119;29;19922;-65
2022/09/29 08:58:23;;;;;;;;;;;;;;;12.96;62.78;97483.78;4944471;29;20437;-65
2022/09/29 09:01:01;;;;;;;;;;;;;;;12.97;63.39;97480.09;4945605;29;20280;-65
2022/09/29 09:03:36;;;;;;;;;;;;;;;13.03;63.36;97487.09;4943855;29;19922;-65
2022/09/29 09:06:06;;;;;;;;;;;;;;;13.08;63.05;97482.66;4945629;29;20282;-65
2022/09/29 09:08:44;;;;;;;;;;;;;;;13.16;63.20;97488.63;4946739;29;19926;-65
2022/09/29 09:11:20;;;;;;;;;;;;;;;13.23;63.21;97490.13;4945539;29;19923;-65
2022/09/29 09:14:16;;;;;;;;;;;;;;;13.33;62.98;97492.13;4944917;29;20383;-65
2022/09/29 09:16:49;;;;;;;;;;;;;;;13.37;63.03;97499.34;4933577;29;19942;-65
2022/09/29 09:19:25;;;;;;;;;;;;;;;13.42;62.38;97500.47;4944106;29;19923;-66
2022/09/29 09:21:59;;;;;;;;;;;;;;;13.38;62.14;97492.97;4945333;29;19922;-65
2022/09/29 09:24:25;;;;;;;;;;;;;;;13.40;62.47;97497.28;4944286;29;19990;-65
2022/09/29 09:26:52;;;;;;;;;;;;;;;13.44;62.36;97485.13;4945259;29;20409;-65
2022/09/29 09:29:19;;;;;;;;;;;;;;;13.45;62.14;97498.13;4945518;29;19930;-65
2022/09/29 09:31:52;;;;;;;;;;;;;;;13.45;62.19;97497.34;4944380;29;19931;-64
2022/09/29 09:34:21;;;;;;;;;;;;;;;13.49;62.53;97490.50;4942689;29;20383;-64
2022/09/29 09:37:06;;;;;;;;;;;;;;;13.58;62.37;97492.50;4942289;29;19929;-64
2022/09/29 09:39:37;;;;;;;;;;;;;;;13.67;62.33;97487.56;4943847;29;19930;-64
2022/09/29 09:42:13;;;;;;;;;;;;;;;13.72;61.87;97489.50;4944258;29;19923;-64
2022/09/29 09:44:43;;;;;;;;;;;;;;;13.75;61.97;97489.81;4943497;29;19922;-66
2022/09/29 09:47:30;;;;;;;;;;;;;;;13.70;61.34;97486.28;4944187;29;19969;-64
2022/09/29 09:50:02;;;;;;;;;;;;;;;13.67;62.01;97490.22;4941192;29;19950;-64
2022/09/29 09:52:40;;;;;;;;;;;;;;;13.70;61.98;97486.28;4938624;29;19926;-64
2022/09/29 09:55:13;;;;;;;;;;;;;;;13.78;62.32;97476.03;4940978;29;20279;-64
2022/09/29 09:58:05;;;;;;;;;;;;;;;13.86;62.20;97474.81;4940557;29;19923;-64
2022/09/29 10:00:31;;;;;;;;;;;;;;;14.00;61.80;97480.56;4939681;29;19923;-66
2022/09/29 10:03:02;;;;;;;;;;;;;;;14.15;61.88;97480.75;4939666;29;19926;-64
2022/09/29 10:05:33;;;;;;;;;;;;;;;14.30;61.47;97488.13;4941741;29;19927;-64
2022/09/29 10:07:59;;;;;;;;;;;;;;;14.42;60.62;97485.31;4939281;29;19929;-64
2022/09/29 10:10:27;;;;;;;;;;;;;;;14.48;60.38;97473.69;4941993;29;19922;-65
2022/09/29 10:13:00;;;;;;;;;;;;;;;14.56;60.56;97481.25;4940270;29;19922;-65
2022/09/29 10:15:30;;;;;;;;;;;;;;;14.65;60.40;97481.59;4953296;23;19923;-66
2022/09/29 10:18:03;;;;;;;;;;;;;;;14.70;59.67;97485.13;4920464;29;19923;-66
2022/09/29 10:20:36;;;;;;;;;;;;;;;14.77;59.29;97484.91;4920418;29;19923;-66
2022/09/29 10:23:22;;;;;;;;;;;;;;;14.87;59.72;97487.69;4936766;29;19923;-67
2022/09/29 10:25:54;;;;;;;;;;;;;;;15.05;59.19;97483.84;4930253;29;19923;-66
2022/09/29 10:28:21;;;;;;;;;;;;;;;15.17;59.16;97487.13;4917505;29;19929;-66
2022/09/29 10:30:48;;;;;;;;;;;;;;;15.27;58.74;97486.44;4918052;29;19923;-66
2022/09/29 10:33:17;;;;;;;;;;;;;;;15.34;58.55;97487.78;4918011;29;19926;-65
2022/09/29 10:35:45;;;;;;;;;;;;;;;15.39;58.42;97475.56;4916466;29;19923;-66
2022/09/29 10:38:25;;;;;;;;;;;;;;;15.44;57.85;97486.28;4931648;29;20324;-66
2022/09/29 10:40:53;;;;;;;;;;;;;;;15.53;57.30;97488.19;4916320;29;19923;-66
2022/09/29 10:43:24;;;;;;;;;;;;;;;15.57;56.88;97485.84;4916214;29;20328;-65
2022/09/29 10:45:52;;;;;;;;;;;;;;;15.59;57.56;97489.84;4900703;29;19922;-66
2022/09/29 10:48:19;;;;;;;;;;;;;;;15.71;57.44;97489.66;4930695;29;20339;-66
2022/09/29 10:50:51;;;;;;;;;;;;;;;15.73;57.05;97500.09;4917373;29;19923;-66
2022/09/29 10:53:24;;;;;;;;;;;;;;;15.71;56.68;97489.66;4917118;29;20029;-65
2022/09/29 10:55:53;;;;;;;;;;;;;;;15.74;56.68;97491.81;4900398;29;19923;-65
2022/09/29 10:58:23;;;;;;;;;;;;;;;15.78;56.76;97489.44;4916687;29;19923;-66
2022/09/29 11:01:14;;;;;;;;;;;;;;;15.82;56.31;97493.22;4917257;29;20327;-66
2022/09/29 11:03:47;;;;;;;;;;;;;;;15.82;56.40;97488.69;4900482;29;19923;-66
2022/09/29 11:06:15;;;;;;;;;;;;;;;15.79;56.32;97497.19;4916728;29;19923;-67
2022/09/29 11:08:59;;;;;;;;;;;;;;;15.77;56.28;97495.84;4917292;29;19923;-66
2022/09/29 11:11:26;;;;;;;;;;;;;;;15.73;56.55;97497.44;4915889;29;19923;-67
2022/09/29 11:13:53;;;;;;;;;;;;;;;15.70;56.66;97493.41;4900037;29;19982;-66
2022/09/29 11:16:22;;;;;;;;;;;;;;;15.69;56.66;97499.00;4916155;29;19922;-67
2022/09/29 11:18:51;;;;;;;;;;;;;;;15.69;56.99;97504.31;4900004;29;20034;-67
2022/09/29 11:21:21;;;;;;;;;;;;;;;15.62;56.64;97499.19;4915944;29;20339;-67
2022/09/29 11:23:50;;;;;;;;;;;;;;;15.60;57.06;97496.78;4916732;29;19931;-66
2022/09/29 11:26:17;;;;;;;;;;;;;;;15.61;56.90;97493.06;4916310;29;19971;-66
2022/09/29 11:28:46;;;;;;;;;;;;;;;15.63;56.61;97495.44;4915603;29;19923;-68
2022/09/29 11:31:22;;;;;;;;;;;;;;;15.69;56.70;97496.34;4915466;29;19930;-66
2022/09/29 11:34:08;;;;;;;;;;;;;;;15.76;56.59;97491.59;4915566;29;19927;-66
2022/09/29 11:36:43;;;;;;;;;;;;;;;15.90;56.73;97497.25;4915995;29;19930;-66
2022/09/29 11:39:10;;;;;;;;;;;;;;;15.98;56.45;97499.44;4916567;29;19923;-66
2022/09/29 11:41:56;;;;;;;;;;;;;;;16.00;56.45;97489.28;4915599;29;20398;-66
2022/09/29 11:44:41;;;;;;;;;;;;;;;16.14;56.34;97503.75;4916651;29;19971;-66
2022/09/29 11:47:18;;;;;;;;;;;;;;;16.25;56.04;97504.63;4917849;29;20426;-68
2022/09/29 11:49:55;;;;;;;;;;;;;;;16.27;55.83;97503.28;4917972;29;19926;-66
2022/09/29 11:52:21;;;;;;;;;;;;;;;16.21;55.67;97501.66;4918555;29;19923;-65
2022/09/29 11:54:57;;;;;;;;;;;;;;;16.14;55.66;97501.09;4917149;29;19927;-66
2022/09/29 11:57:47;;;;;;;;;;;;;;;16.11;55.51;97501.63;4918102;29;20014;-66
2022/09/29 12:00:16;;;;;;;;;;;;;;;16.05;55.99;97498.13;4915837;29;19954;-66
2022/09/29 12:02:46;;;;;;;;;;;;;;;16.06;56.01;97493.59;4916702;29;19923;-66
2022/09/29 12:05:19;;;;;;;;;;;;;;;16.04;55.24;97488.53;4917534;29;19930;-65
2022/09/29 12:07:51;;;;;;;;;;;;;;;16.06;55.50;97489.06;4915639;29;19923;-66
2022/09/29 12:10:18;;;;;;;;;;;;;;;16.08;54.91;97494.97;4917407;29;20358;-66
2022/09/29 12:12:59;;;;;;;;;;;;;;;16.13;54.65;97493.38;4916443;29;19923;-66
2022/09/29 12:15:26;;;;;;;;;;;;;;;16.15;54.66;97496.56;4916225;29;19923;-66
2022/09/29 12:17:55;;;;;;;;;;;;;;;16.15;54.61;97486.69;4916661;29;19978;-67
2022/09/29 12:20:34;;;;;;;;;;;;;;;16.14;54.44;97487.78;4915316;29;19923;-67
2022/09/29 12:23:04;;;;;;;;;;;;;;;16.10;53.73;97487.50;4916534;29;19942;-66
2022/09/29 12:25:34;;;;;;;;;;;;;;;16.03;53.81;97502.09;4916687;29;20347;-66
2022/09/29 12:28:04;;;;;;;;;;;;;;;15.97;53.76;97505.81;4915992;29;20327;-66
2022/09/29 12:30:46;;;;;;;;;;;;;;;15.87;53.57;97513.75;4916432;29;19923;-66
2022/09/29 12:33:18;;;;;;;;;;;;;;;15.65;53.36;97508.56;4915048;29;19987;-67
2022/09/29 12:35:47;;;;;;;;;;;;;;;15.32;52.17;97511.22;4916049;29;19931;-67
2022/09/29 12:38:26;;;;;;;;;;;;;;;15.03;52.51;97513.38;4916051;29;19923;-67
2022/09/29 12:41:06;;;;;;;;;;;;;;;14.85;53.10;97511.06;4915941;29;19923;-67
2022/09/29 12:43:41;;;;;;;;;;;;;;;14.65;52.56;97516.97;4916403;29;20300;-67
2022/09/29 12:46:18;;;;;;;;;;;;;;;14.46;52.73;97519.16;4898711;29;20371;-67
2022/09/29 12:48:44;;;;;;;;;;;;;;;14.25;52.46;97514.66;4916229;29;19982;-67
2022/09/29 12:51:16;;;;;;;;;;;;;;;14.08;52.97;97514.69;4914994;29;19971;-67
2022/09/29 12:53:59;;;;;;;;;;;;;;;13.92;53.71;97518.19;4914879;29;19926;-66
2022/09/29 12:56:31;;;;;;;;;;;;;;;13.80;54.50;97515.66;4914522;29;19923;-67
2022/09/29 12:59:19;;;;;;;;;;;;;;;13.69;54.73;97517.34;4914841;29;19923;-67
2022/09/29 13:01:46;;;;;;;;;;;;;;;13.60;55.16;97518.81;4914698;29;19951;-67
2022/09/29 13:04:24;;;;;;;;;;;;;;;13.50;55.59;97518.66;4915976;29;19923;-66
2022/09/29 13:07:10;;;;;;;;;;;;;;;13.42;56.27;97522.50;4914216;29;19923;-65
2022/09/29 13:09:55;;;;;;;;;;;;;;;13.34;56.27;97522.91;4914981;29;19978;-65
2022/09/29 13:12:40;;;;;;;;;;;;;;;13.13;56.30;97517.25;4918809;29;20455;-66